LDZD/ZAD METAR and TAF weather

Enter ICAO airport designator
Station Type Date Time Source
LDZD METAR 2022/12/08 12:30 UTC NOAA

LDZD 081230Z 27004KT 240V300 9999 FEW015 SCT030 13/11 Q1010 TEMPO 27008KT


Station Type Date Time Source
LDZD Decoded METAR 2022/12/08 12:30 UTC NOAA

Zadar / Zemunik, Croatia (LDZD) 44-06N 015-21E
Dec 08, 2022 - 07:30 AM EST / 2022.12.08 1230 UTC
Wind: from the W (270 degrees) at 5 MPH (4 KT) (direction variable):0
Visibility: greater than 7 mile(s):0
Sky conditions: partly cloudy
Temperature: 55 F (13 C)
Dew Point: 51 F (11 C)
Relative Humidity: 87%
Pressure (altimeter): 29.83 in. Hg (1010 hPa)
ob: LDZD 081230Z 27004KT 240V300 9999 FEW015 SCT030 13/11 Q1010 TEMPO 27008KT
cycle: 12

Station Type Date Time Source
LDZD TAF 2022/12/08 12:41 UTC NOAA

TAF COR LDZD 081136Z 0812/0912 30005KT 9999 SCT030 TX16/0911Z TN09/0818Z PROB30
TEMPO 0812/0815 27008KT
TEMPO 0818/0912 RA PROB40
TEMPO 0818/0900 4000 SHRA BKN010 FEW015TCU
BECMG 0900/0902 12010KT PROB40
TEMPO 0906/0912 3000 SHRA BKN010 FEW015TCU

Example: see airport list